createdAt,value
2024-04-23T00:00:31.184Z,5.73
2024-04-23T00:02:57.722Z,6.13
2024-04-23T00:05:24.580Z,5.88
2024-04-23T00:07:51.130Z,6.10
2024-04-23T00:10:17.670Z,5.63
2024-04-23T00:12:44.130Z,5.57
2024-04-23T00:15:10.611Z,6.90
2024-04-23T00:17:37.160Z,5.60
2024-04-23T00:20:03.814Z,5.68
2024-04-23T00:22:30.356Z,7.60
2024-04-23T00:24:56.996Z,6.93
2024-04-23T00:27:23.456Z,6.20
2024-04-23T00:29:49.950Z,6.72
2024-04-23T00:32:16.551Z,7.00
2024-04-23T00:34:43.088Z,6.90
2024-04-23T00:37:09.577Z,6.57
2024-04-23T00:39:36.035Z,6.13
2024-04-23T00:42:02.520Z,5.05
2024-04-23T00:44:29.049Z,6.10
2024-04-23T00:46:56.092Z,7.13
2024-04-23T00:49:22.763Z,7.77
2024-04-23T00:51:53.607Z,6.35
2024-04-23T00:54:26.141Z,7.00
2024-04-23T00:56:55.120Z,5.72
2024-04-23T00:59:21.575Z,6.68
2024-04-23T01:01:49.781Z,6.80
2024-04-23T01:04:16.335Z,6.40
2024-04-23T01:06:43.224Z,7.93
2024-04-23T01:09:10.323Z,8.20
2024-04-23T01:11:37.387Z,7.38
2024-04-23T01:14:05.176Z,6.90
2024-04-23T01:16:36.289Z,6.07
2024-04-23T01:19:05.640Z,7.10
2024-04-23T01:21:44.079Z,6.85
2024-04-23T01:24:16.594Z,7.88
2024-04-23T01:26:43.632Z,6.53
2024-04-23T01:29:10.681Z,5.60
2024-04-23T01:31:37.353Z,6.70
2024-04-23T01:34:04.765Z,6.30
2024-04-23T01:36:31.394Z,5.97
2024-04-23T01:38:58.586Z,5.83
2024-04-23T01:41:25.263Z,5.93
2024-04-23T01:43:52.542Z,6.40
2024-04-23T01:46:19.696Z,7.63
2024-04-23T01:48:46.191Z,7.28
2024-04-23T01:51:12.679Z,5.83
2024-04-23T01:53:39.130Z,7.18
2024-04-23T01:56:05.992Z,5.53
2024-04-23T01:58:32.626Z,6.05
2024-04-23T02:01:01.423Z,6.50
2024-04-23T02:03:29.230Z,6.00
2024-04-23T02:05:59.269Z,5.97
2024-04-23T02:08:25.878Z,7.10
2024-04-23T02:10:52.480Z,6.20
2024-04-23T02:13:19.063Z,7.43
2024-04-23T02:15:45.545Z,6.50
2024-04-23T02:18:12.215Z,6.55
2024-04-23T02:20:38.704Z,7.32
2024-04-23T02:23:05.359Z,8.23
2024-04-23T02:25:31.869Z,6.38
2024-04-23T02:27:58.355Z,5.97
2024-04-23T02:30:24.799Z,6.60
2024-04-23T02:32:51.371Z,6.88
2024-04-23T02:35:17.857Z,6.45
2024-04-23T02:37:44.360Z,5.65
2024-04-23T02:40:11.161Z,7.10
2024-04-23T02:42:37.612Z,7.32
2024-04-23T02:45:04.356Z,7.05
2024-04-23T02:47:30.889Z,6.95
2024-04-23T02:49:57.509Z,5.95
2024-04-23T02:52:24.055Z,6.00
2024-04-23T02:54:50.511Z,6.38
2024-04-23T02:57:17.002Z,7.85
2024-04-23T02:59:43.451Z,5.63
2024-04-23T03:02:11.964Z,6.55
2024-04-23T03:04:38.583Z,6.50
2024-04-23T03:07:05.116Z,7.50
2024-04-23T03:09:31.628Z,7.15
2024-04-23T03:11:58.204Z,5.68
2024-04-23T03:14:24.691Z,7.95
2024-04-23T03:16:51.214Z,7.10
2024-04-23T03:19:17.767Z,5.75
2024-04-23T03:21:50.984Z,6.90
2024-04-23T03:24:17.547Z,9.07
2024-04-23T03:26:44.016Z,6.60
2024-04-23T03:29:10.496Z,7.43
2024-04-23T03:31:37.030Z,8.40
2024-04-23T03:34:03.591Z,8.70
2024-04-23T03:36:30.112Z,7.57
2024-04-23T03:38:56.582Z,8.57
2024-04-23T03:41:23.014Z,9.93
2024-04-23T03:43:49.552Z,8.32
2024-04-23T03:46:16.034Z,7.35
2024-04-23T03:48:42.496Z,7.95
2024-04-23T03:51:08.965Z,8.18
2024-04-23T03:53:35.408Z,6.70
2024-04-23T03:56:01.957Z,7.45
2024-04-23T03:58:28.510Z,6.85
2024-04-23T04:00:55.026Z,7.60
2024-04-23T04:03:40.169Z,6.65
2024-04-23T04:06:09.745Z,7.67
2024-04-23T04:08:39.529Z,6.68
2024-04-23T04:11:06.889Z,6.28
2024-04-23T04:13:34.044Z,7.05
2024-04-23T04:16:01.226Z,8.23
2024-04-23T04:18:27.735Z,7.13
2024-04-23T04:20:54.829Z,8.27
2024-04-23T04:23:21.395Z,7.03
2024-04-23T04:25:47.847Z,8.00
2024-04-23T04:28:14.339Z,9.75
2024-04-23T04:30:41.187Z,9.53
2024-04-23T04:33:07.817Z,9.55
2024-04-23T04:35:34.415Z,8.48
2024-04-23T04:38:00.907Z,9.45
2024-04-23T04:40:27.459Z,9.15
2024-04-23T04:42:53.925Z,7.23
2024-04-23T04:45:20.631Z,7.97
2024-04-23T04:47:50.333Z,7.88
2024-04-23T04:50:18.815Z,10.23
2024-04-23T04:52:45.822Z,8.65
2024-04-23T04:55:12.388Z,8.67
2024-04-23T04:57:38.859Z,7.40
2024-04-23T05:00:05.724Z,7.90
2024-04-23T05:02:32.265Z,7.50
2024-04-23T05:04:58.933Z,8.68
2024-04-23T05:07:25.530Z,7.47
2024-04-23T05:09:52.001Z,8.70
2024-04-23T05:12:18.630Z,13.02
2024-04-23T05:14:45.176Z,9.43
2024-04-23T05:17:11.776Z,9.65
2024-04-23T05:19:38.341Z,10.13
2024-04-23T05:22:04.901Z,9.85
2024-04-23T05:24:31.350Z,8.32
2024-04-23T05:26:57.798Z,9.52
2024-04-23T05:29:24.285Z,8.05
2024-04-23T05:32:09.514Z,9.00
2024-04-23T05:34:37.194Z,7.47
2024-04-23T05:37:03.693Z,8.20
2024-04-23T05:39:30.205Z,7.35
2024-04-23T05:41:57.226Z,8.23
2024-04-23T05:44:23.749Z,6.37
2024-04-23T05:46:50.259Z,7.55
2024-04-23T05:49:54.346Z,8.27
2024-04-23T05:52:59.852Z,6.72
2024-04-23T05:55:40.418Z,6.97
2024-04-23T05:58:08.031Z,6.30
2024-04-23T06:00:35.433Z,6.88
2024-04-23T06:03:03.031Z,7.20
2024-04-23T06:05:30.150Z,5.53
2024-04-23T06:07:58.742Z,4.47
2024-04-23T06:10:25.571Z,4.17
2024-04-23T06:12:52.112Z,4.07
2024-04-23T06:15:19.233Z,4.05
2024-04-23T06:17:48.059Z,4.72
2024-04-23T06:20:15.562Z,4.05
2024-04-23T06:22:43.088Z,4.70
2024-04-23T06:25:11.625Z,4.18
2024-04-23T06:27:39.821Z,4.05
2024-04-23T06:30:08.477Z,4.55
2024-04-23T06:32:36.523Z,3.42
2024-04-23T06:35:04.196Z,3.93
2024-04-23T06:37:30.817Z,4.93
2024-04-23T06:39:57.410Z,4.50
2024-04-23T06:42:23.940Z,4.10
2024-04-23T06:44:50.416Z,4.03
2024-04-23T06:47:18.154Z,3.77
2024-04-23T06:49:45.589Z,4.35
2024-04-23T06:52:15.871Z,3.97
2024-04-23T06:54:42.508Z,5.07
2024-04-23T06:57:09.006Z,4.18
2024-04-23T06:59:35.580Z,6.17
2024-04-23T07:02:02.648Z,5.43
2024-04-23T07:04:29.200Z,3.85
2024-04-23T07:06:55.876Z,5.00
2024-04-23T07:09:22.640Z,5.32
2024-04-23T07:11:49.200Z,4.40
2024-04-23T07:14:15.669Z,3.60
2024-04-23T07:16:46.264Z,4.32
2024-04-23T07:19:15.933Z,4.35
2024-04-23T07:21:42.788Z,4.65
2024-04-23T07:24:09.319Z,3.47
2024-04-23T07:26:35.778Z,3.95
2024-04-23T07:29:02.557Z,4.05
2024-04-23T07:31:29.154Z,3.95
2024-04-23T07:33:55.681Z,4.05
2024-04-23T07:36:22.205Z,4.27
2024-04-23T07:38:48.752Z,3.20
2024-04-23T07:41:16.282Z,3.38
2024-04-23T07:43:43.231Z,3.00
2024-04-23T07:46:09.828Z,3.50
2024-04-23T07:48:36.336Z,2.90
2024-04-23T07:51:02.919Z,3.35
2024-04-23T07:53:30.561Z,4.28
2024-04-23T07:55:57.143Z,2.50
2024-04-23T07:58:23.680Z,3.13
2024-04-23T08:00:50.160Z,3.27
2024-04-23T08:03:16.712Z,3.17
2024-04-23T08:05:43.276Z,3.80
2024-04-23T08:08:09.855Z,3.30
2024-04-23T08:10:36.791Z,5.68
2024-04-23T08:13:03.270Z,3.60
2024-04-23T08:15:29.946Z,5.15
2024-04-23T08:17:56.533Z,3.42
2024-04-23T08:20:23.937Z,3.70
2024-04-23T08:22:56.152Z,2.90
2024-04-23T08:25:22.678Z,2.43
2024-04-23T08:27:49.343Z,4.43
2024-04-23T08:30:21.065Z,3.20
2024-04-23T08:32:47.667Z,2.70
2024-04-23T08:35:14.296Z,2.83
2024-04-23T08:37:41.818Z,2.90
2024-04-23T08:40:11.798Z,2.67
2024-04-23T08:42:40.124Z,3.13
2024-04-23T08:45:09.231Z,2.50
2024-04-23T08:47:37.949Z,4.18
2024-04-23T08:50:05.291Z,3.30
2024-04-23T08:52:32.140Z,4.60
2024-04-23T08:54:58.959Z,2.50
2024-04-23T08:57:27.352Z,4.82
2024-04-23T08:59:54.145Z,3.08
2024-04-23T09:02:30.039Z,2.53
2024-04-23T09:04:59.016Z,2.45
2024-04-23T09:07:30.995Z,3.15
2024-04-23T09:10:01.000Z,2.75
2024-04-23T09:12:28.025Z,2.63
2024-04-23T09:14:58.328Z,2.80
2024-04-23T09:17:25.235Z,2.28
2024-04-23T09:19:52.499Z,3.05
2024-04-23T09:22:19.177Z,2.22
2024-04-23T09:24:45.650Z,2.05
2024-04-23T09:27:12.373Z,2.30
2024-04-23T09:29:39.663Z,2.67
2024-04-23T09:32:06.525Z,2.13
2024-04-23T09:34:36.941Z,3.22
2024-04-23T09:37:18.132Z,5.78
2024-04-23T09:39:46.906Z,2.80
2024-04-23T09:42:22.895Z,2.58
2024-04-23T09:44:49.400Z,3.13
2024-04-23T09:47:16.427Z,2.58
2024-04-23T09:49:46.441Z,3.05
2024-04-23T09:52:13.438Z,2.73
2024-04-23T09:54:44.381Z,2.33
2024-04-23T09:57:10.839Z,3.00
2024-04-23T09:59:37.352Z,3.40
2024-04-23T10:02:05.126Z,2.88
2024-04-23T10:04:35.430Z,3.10
2024-04-23T10:07:09.680Z,2.42
2024-04-23T10:09:37.176Z,2.88
2024-04-23T10:12:07.062Z,2.30
2024-04-23T10:15:00.447Z,4.80
2024-04-23T10:17:35.694Z,4.40
2024-04-23T10:20:03.021Z,1.85
2024-04-23T10:22:30.908Z,3.78
2024-04-23T10:24:57.813Z,3.53
2024-04-23T10:27:25.845Z,7.47
2024-04-23T10:29:54.077Z,3.03
2024-04-23T10:32:22.426Z,2.40
2024-04-23T10:34:49.372Z,3.53
2024-04-23T10:37:16.565Z,2.97
2024-04-23T10:39:44.763Z,2.25
2024-04-23T10:42:13.001Z,2.80
2024-04-23T10:44:40.386Z,3.47
2024-04-23T10:47:07.074Z,3.72
2024-04-23T10:49:38.142Z,5.15
2024-04-23T10:52:05.753Z,3.42
2024-04-23T10:54:34.108Z,3.50
2024-04-23T10:57:10.618Z,4.32
2024-04-23T10:59:41.730Z,2.85
2024-04-23T11:02:12.498Z,4.05
2024-04-23T11:04:43.428Z,3.95
2024-04-23T11:07:12.221Z,4.53
2024-04-23T11:09:42.096Z,3.08
2024-04-23T11:12:21.482Z,3.10
2024-04-23T11:14:48.890Z,3.35
2024-04-23T11:17:16.145Z,3.00
2024-04-23T11:19:44.931Z,2.80
2024-04-23T11:22:16.453Z,6.25
2024-04-23T11:24:57.226Z,5.03
2024-04-23T11:27:27.168Z,3.35
2024-04-23T11:29:53.953Z,2.95
2024-04-23T11:32:20.833Z,3.03
2024-04-23T11:34:48.527Z,2.80
2024-04-23T11:37:29.855Z,2.95
2024-04-23T11:39:59.725Z,3.40
2024-04-23T11:42:34.067Z,2.83
2024-04-23T11:45:02.122Z,2.70
2024-04-23T11:47:29.961Z,4.15
2024-04-23T11:50:00.882Z,4.72
2024-04-23T11:52:29.294Z,3.53
2024-04-23T11:54:56.291Z,3.83
2024-04-23T11:57:23.106Z,3.37
2024-04-23T11:59:50.361Z,3.72
2024-04-23T12:02:16.964Z,3.00
2024-04-23T12:04:44.811Z,3.40
2024-04-23T12:07:13.023Z,5.45
2024-04-23T12:09:39.493Z,2.97
2024-04-23T12:12:06.730Z,2.33
2024-04-23T12:14:33.470Z,2.78
2024-04-23T12:17:00.574Z,2.30
2024-04-23T12:23:14.316Z,3.07
2024-04-23T12:25:42.555Z,2.60
2024-04-23T12:28:11.177Z,2.38
2024-04-23T12:30:38.672Z,2.75
2024-04-23T12:33:12.685Z,3.67
2024-04-23T12:35:40.350Z,3.27
2024-04-23T12:38:10.966Z,3.65
2024-04-23T12:40:39.090Z,2.63
2024-04-23T12:43:12.401Z,2.70
2024-04-23T12:45:39.957Z,2.53
2024-04-23T12:48:06.870Z,3.20
2024-04-23T12:50:33.643Z,3.25
2024-04-23T12:53:00.318Z,2.90
2024-04-23T12:55:29.033Z,2.20
2024-04-23T12:57:55.505Z,3.13
2024-04-23T13:00:21.985Z,2.57
2024-04-23T13:02:48.669Z,2.47
2024-04-23T13:05:15.244Z,2.20
2024-04-23T13:07:41.790Z,2.05
2024-04-23T13:10:08.343Z,3.08
2024-04-23T13:12:34.794Z,3.23
2024-04-23T13:15:01.276Z,3.55
2024-04-23T13:17:27.803Z,2.17
2024-04-23T13:19:59.853Z,3.67
2024-04-23T13:22:27.594Z,2.88
2024-04-23T13:24:54.141Z,3.27
2024-04-23T13:27:20.800Z,2.80
2024-04-23T13:29:47.844Z,2.40
2024-04-23T13:32:14.439Z,3.92
2024-04-23T13:34:41.018Z,2.70
2024-04-23T13:37:07.633Z,2.43
2024-04-23T13:39:34.086Z,2.30
2024-04-23T13:42:00.559Z,3.65
2024-04-23T13:44:27.718Z,2.83
2024-04-23T13:46:54.232Z,3.53
2024-04-23T13:49:20.746Z,4.63
2024-04-23T13:51:47.226Z,3.63
2024-04-23T13:54:13.674Z,8.75
2024-04-23T13:56:40.121Z,2.58
2024-04-23T13:59:06.653Z,3.83
2024-04-23T14:01:33.223Z,3.33
2024-04-23T14:03:59.929Z,2.50
2024-04-23T14:06:26.473Z,2.10
2024-04-23T14:08:52.950Z,3.25
2024-04-23T14:11:19.560Z,2.80
2024-04-23T14:13:46.120Z,4.80
2024-04-23T14:16:13.532Z,2.85
2024-04-23T14:18:42.093Z,2.60
2024-04-23T14:21:08.760Z,2.92
2024-04-23T14:23:36.045Z,5.07
2024-04-23T14:26:03.253Z,3.70
2024-04-23T14:28:30.967Z,3.15
2024-04-23T14:31:04.843Z,4.78
2024-04-23T14:33:32.339Z,3.00
2024-04-23T14:36:05.594Z,3.72
2024-04-23T14:38:32.844Z,4.10
2024-04-23T14:41:03.892Z,2.28
2024-04-23T14:43:31.184Z,3.63
2024-04-23T14:45:57.748Z,3.75
2024-04-23T14:48:24.948Z,2.30
2024-04-23T14:50:51.906Z,3.73
2024-04-23T14:53:21.656Z,3.13
2024-04-23T14:55:57.991Z,3.17
2024-04-23T14:58:24.694Z,3.53
2024-04-23T15:00:51.159Z,3.38
2024-04-23T15:03:18.829Z,2.17
2024-04-23T15:05:45.951Z,3.25
2024-04-23T15:08:13.085Z,2.63
2024-04-23T15:10:49.801Z,3.53
2024-04-23T15:13:18.537Z,3.47
2024-04-23T15:15:45.538Z,2.13
2024-04-23T15:18:12.137Z,2.00
2024-04-23T15:20:40.361Z,2.58
2024-04-23T15:23:07.676Z,2.22
2024-04-23T15:25:34.258Z,4.25
2024-04-23T15:28:00.801Z,3.00
2024-04-23T15:30:28.279Z,2.60
2024-04-23T15:32:56.292Z,2.33
2024-04-23T15:35:23.601Z,2.53
2024-04-23T15:37:50.107Z,2.78
2024-04-23T15:40:16.572Z,2.27
2024-04-23T15:42:43.579Z,4.03
2024-04-23T15:45:10.903Z,2.10
2024-04-23T15:47:37.629Z,2.63
2024-04-23T15:50:04.545Z,2.80
2024-04-23T15:52:31.021Z,2.20
2024-04-23T15:54:57.479Z,2.38
2024-04-23T15:57:23.932Z,2.95
2024-04-23T15:59:50.391Z,2.28
2024-04-23T16:02:17.056Z,2.40
2024-04-23T16:04:43.593Z,1.80
2024-04-23T16:07:10.064Z,2.35
2024-04-23T16:09:36.526Z,2.00
2024-04-23T16:12:07.612Z,3.30
2024-04-23T16:14:36.621Z,1.95
2024-04-23T16:17:03.190Z,2.97
2024-04-23T16:19:29.638Z,2.40
2024-04-23T16:21:56.099Z,2.00
2024-04-23T16:24:22.558Z,2.10
2024-04-23T16:26:49.038Z,2.88
2024-04-23T16:29:15.551Z,2.53
2024-04-23T16:31:42.067Z,3.35
2024-04-23T16:34:08.950Z,2.65
2024-04-23T16:36:35.437Z,2.92
2024-04-23T16:39:02.026Z,3.40
2024-04-23T16:41:28.475Z,2.53
2024-04-23T16:43:55.053Z,2.90
2024-04-23T16:46:21.619Z,2.10
2024-04-23T16:48:48.552Z,3.97
2024-04-23T16:51:15.108Z,3.33
2024-04-23T16:53:41.573Z,2.33
2024-04-23T16:56:09.687Z,2.90
2024-04-23T16:58:36.528Z,3.25
2024-04-23T17:01:09.898Z,1.92
2024-04-23T17:03:36.638Z,2.78
2024-04-23T17:06:03.274Z,3.03
2024-04-23T17:08:29.887Z,3.83
2024-04-23T17:11:00.591Z,3.03
2024-04-23T17:13:27.199Z,2.38
2024-04-23T17:15:53.674Z,3.08
2024-04-23T17:18:20.255Z,2.53
2024-04-23T17:20:46.847Z,3.08
2024-04-23T17:23:13.915Z,2.90
2024-04-23T17:25:40.482Z,2.38
2024-04-23T17:28:06.962Z,3.92
2024-04-23T17:30:33.435Z,2.90
2024-04-23T17:32:59.997Z,2.70
2024-04-23T17:35:26.603Z,2.28
2024-04-23T17:37:53.093Z,2.60
2024-04-23T17:40:19.612Z,2.38
2024-04-23T17:42:46.277Z,2.70
2024-04-23T17:45:12.728Z,2.42
2024-04-23T17:47:42.361Z,1.90
2024-04-23T17:50:11.651Z,3.80
2024-04-23T17:52:38.287Z,4.30
2024-04-23T17:55:05.944Z,3.80
2024-04-23T17:57:32.393Z,2.60
2024-04-23T17:59:58.865Z,2.78
2024-04-23T18:02:25.392Z,2.45
2024-04-23T18:04:51.922Z,3.72
2024-04-23T18:07:18.459Z,3.40
2024-04-23T18:09:44.918Z,3.72
2024-04-23T18:12:11.415Z,2.88
2024-04-23T18:14:37.859Z,4.45
2024-04-23T18:17:06.081Z,3.95
2024-04-23T18:19:32.651Z,4.93
2024-04-23T18:21:59.126Z,3.33
2024-04-23T18:24:25.665Z,3.00
2024-04-23T18:26:52.473Z,3.05
2024-04-23T18:29:18.921Z,2.95
2024-04-23T18:31:45.460Z,4.17
2024-04-23T18:34:12.302Z,3.90
2024-04-23T18:36:41.243Z,3.80
2024-04-23T18:39:07.716Z,3.72
2024-04-23T18:41:34.160Z,4.35
2024-04-23T18:44:00.881Z,5.10
2024-04-23T18:46:27.360Z,4.50
2024-04-23T18:48:54.537Z,5.15
2024-04-23T18:51:21.153Z,5.13
2024-04-23T18:53:47.746Z,5.22
2024-04-23T18:56:14.971Z,4.03
2024-04-23T18:58:42.820Z,5.95
2024-04-23T19:01:13.104Z,4.70
2024-04-23T19:03:42.009Z,4.90
2024-04-23T19:06:15.749Z,4.40
2024-04-23T19:08:43.212Z,5.23
2024-04-23T19:11:09.794Z,6.07
2024-04-23T19:13:36.841Z,4.45
2024-04-23T19:16:13.466Z,4.93
2024-04-23T19:18:45.170Z,4.63
2024-04-23T19:21:11.966Z,5.70
2024-04-23T19:23:38.393Z,6.00
2024-04-23T19:26:05.467Z,5.40
2024-04-23T19:28:32.755Z,4.78
2024-04-23T19:30:59.219Z,6.53
2024-04-23T19:33:26.108Z,5.07
2024-04-23T19:35:52.624Z,5.47
2024-04-23T19:38:19.578Z,4.90
2024-04-23T19:40:46.224Z,6.32
2024-04-23T19:43:12.691Z,6.05
2024-04-23T19:45:39.174Z,6.67
2024-04-23T19:48:06.033Z,6.90
2024-04-23T19:50:32.522Z,8.40
2024-04-23T19:52:58.979Z,8.10
2024-04-23T19:55:25.478Z,6.90
2024-04-23T19:58:10.584Z,6.80
2024-04-23T20:00:37.087Z,10.75
2024-04-23T20:03:03.784Z,9.70
2024-04-23T20:05:30.333Z,7.70
2024-04-23T20:07:56.853Z,7.50
2024-04-23T20:10:23.339Z,8.10
2024-04-23T20:12:49.829Z,6.72
2024-04-23T20:15:16.295Z,6.75
2024-04-23T20:17:43.061Z,6.57
2024-04-23T20:20:09.817Z,7.63
2024-04-23T20:22:36.290Z,8.90
2024-04-23T20:25:02.767Z,7.80
2024-04-23T20:27:29.280Z,8.55
2024-04-23T20:29:55.732Z,12.05
2024-04-23T20:32:22.217Z,9.27
2024-04-23T20:34:49.575Z,7.10
2024-04-23T20:37:16.106Z,9.68
2024-04-23T20:39:42.607Z,10.05
2024-04-23T20:42:09.086Z,9.00
2024-04-23T20:44:35.617Z,7.90
2024-04-23T20:47:02.195Z,13.43
2024-04-23T20:49:28.691Z,18.30
2024-04-23T20:51:55.169Z,13.80
2024-04-23T20:54:21.619Z,12.13
2024-04-23T20:56:48.141Z,10.68
2024-04-23T20:59:14.640Z,7.47
2024-04-23T21:01:41.205Z,7.43
2024-04-23T21:04:09.049Z,7.50
2024-04-23T21:06:35.610Z,8.20
2024-04-23T21:09:02.088Z,7.45
2024-04-23T21:11:28.566Z,9.93
2024-04-23T21:13:55.114Z,8.85
2024-04-23T21:16:21.610Z,11.55
2024-04-23T21:18:48.664Z,11.77
2024-04-23T21:21:15.213Z,10.40
2024-04-23T21:23:42.080Z,9.27
2024-04-23T21:26:08.917Z,9.48
2024-04-23T21:28:35.494Z,8.35
2024-04-23T21:31:02.332Z,10.32
2024-04-23T21:33:28.989Z,9.52
2024-04-23T21:35:55.532Z,11.03
2024-04-23T21:38:21.989Z,8.93
2024-04-23T21:40:48.479Z,9.77
2024-04-23T21:43:14.952Z,8.55
2024-04-23T21:45:41.410Z,9.57
2024-04-23T21:48:09.443Z,10.93
2024-04-23T21:50:36.840Z,11.40
2024-04-23T21:53:04.622Z,11.63
2024-04-23T21:55:31.120Z,9.40
2024-04-23T21:57:57.579Z,10.02
2024-04-23T22:00:24.045Z,10.87
2024-04-23T22:02:50.664Z,10.50
2024-04-23T22:05:17.292Z,10.32
2024-04-23T22:07:47.240Z,9.60
2024-04-23T22:10:13.844Z,11.65
2024-04-23T22:12:40.315Z,11.67
2024-04-23T22:15:07.191Z,9.95
2024-04-23T22:17:33.816Z,10.88
2024-04-23T22:20:00.426Z,11.93
2024-04-23T22:22:26.904Z,10.55
2024-04-23T22:24:53.398Z,11.73
2024-04-23T22:27:19.936Z,11.20
2024-04-23T22:29:46.411Z,12.73
2024-04-23T22:32:12.900Z,11.40
2024-04-23T22:34:39.386Z,12.18
2024-04-23T22:37:05.822Z,10.40
2024-04-23T22:39:32.279Z,11.82
2024-04-23T22:41:58.726Z,12.93
2024-04-23T22:44:25.973Z,12.18
2024-04-23T22:46:52.578Z,9.55
2024-04-23T22:49:19.048Z,9.03
2024-04-23T22:51:49.936Z,10.48
2024-04-23T22:54:16.817Z,9.48
2024-04-23T22:56:43.300Z,10.25
2024-04-23T22:59:09.788Z,9.18
2024-04-23T23:01:36.260Z,10.77
2024-04-23T23:04:02.805Z,10.55
2024-04-23T23:06:31.336Z,11.63
2024-04-23T23:09:00.305Z,9.57
2024-04-23T23:11:26.914Z,9.90
2024-04-23T23:13:53.486Z,9.03
2024-04-23T23:16:20.002Z,10.75
2024-04-23T23:18:47.213Z,10.68
2024-04-23T23:21:13.667Z,10.77
2024-04-23T23:23:40.195Z,10.13
2024-04-23T23:26:06.677Z,10.70
2024-04-23T23:28:33.340Z,11.05
2024-04-23T23:30:59.784Z,11.48
2024-04-23T23:33:26.354Z,9.45
2024-04-23T23:35:52.905Z,11.50
2024-04-23T23:38:19.454Z,10.03
2024-04-23T23:40:46.013Z,11.35
2024-04-23T23:43:12.499Z,11.35
2024-04-23T23:45:38.981Z,11.55
2024-04-23T23:48:05.971Z,11.80
2024-04-23T23:50:32.511Z,11.47
2024-04-23T23:52:59.145Z,11.57
2024-04-23T23:55:25.644Z,13.23
2024-04-23T23:57:52.099Z,12.07
